Time;durP1;ratioP1;P1;durP2;ratioP2;P2;SDS_P1;SDS_P2;PMS_P1;PMS_P2;Temp;Humidity;BMP_temperature;BMP_pressure;BME280_temperature;BME280_humidity;BME280_pressure;Samples;Min_cycle;Max_cycle;Signal;HPM_P1;HPM_P2
2022/11/11 00:01:31;;;;;;;11.85;7.57;;;10.70;99.90;;;;;;5085505;28;20417;-77
2022/11/11 00:03:57;;;;;;;13.07;8.70;;;10.70;99.90;;;;;;5075345;28;20105;-77
2022/11/11 00:06:23;;;;;;;13.70;7.90;;;10.70;99.90;;;;;;5068948;28;20040;-77
2022/11/11 00:08:48;;;;;;;13.73;8.77;;;10.60;99.90;;;;;;5090801;28;20089;-77
2022/11/11 00:11:15;;;;;;;14.80;8.02;;;10.60;99.90;;;;;;5084137;28;20549;-77
2022/11/11 00:13:42;;;;;;;15.50;8.68;;;10.60;99.90;;;;;;5115323;27;20143;-77
2022/11/11 00:16:17;;;;;;;18.33;9.13;;;10.60;99.90;;;;;;5086123;28;20142;-77
2022/11/11 00:27:11;;;;;;;15.10;8.80;;;10.60;99.90;;;;;;5073404;28;20444;-77
2022/11/11 00:29:38;;;;;;;15.67;9.40;;;10.50;99.90;;;;;;5066280;28;20060;-77
2022/11/11 00:32:23;;;;;;;16.05;9.77;;;10.50;99.90;;;;;;5072738;28;20300;-77
2022/11/11 00:37:39;;;;;;;18.67;9.85;;;10.50;99.90;;;;;;5077613;28;20045;-77
2022/11/11 00:40:05;;;;;;;17.90;10.55;;;10.50;99.90;;;;;;5067845;28;20048;-77
2022/11/11 00:42:31;;;;;;;14.68;9.43;;;10.50;99.90;;;;;;5078254;28;20075;-74
2022/11/11 00:44:56;;;;;;;19.30;10.18;;;10.50;99.90;;;;;;5088182;28;20036;-77
2022/11/11 00:53:28;;;;;;;15.18;10.27;;;10.50;99.90;;;;;;5084110;28;20040;-76
2022/11/11 00:55:54;;;;;;;16.88;10.48;;;10.40;99.90;;;;;;5065395;28;20049;-77
2022/11/11 00:58:21;;;;;;;17.73;10.48;;;10.50;99.90;;;;;;5077332;28;20498;-77
2022/11/11 01:00:49;;;;;;;14.23;10.35;;;10.50;99.90;;;;;;5080580;28;20540;-77
2022/11/11 01:03:15;;;;;;;17.45;11.23;;;10.50;99.90;;;;;;5066415;28;20055;-77
2022/11/11 01:05:41;;;;;;;18.40;10.70;;;10.50;99.90;;;;;;5065669;28;20545;-76
2022/11/11 01:08:06;;;;;;;16.95;11.02;;;10.50;99.90;;;;;;5081471;28;20040;-77
2022/11/11 01:10:38;;;;;;;17.58;10.80;;;10.50;99.90;;;;;;5066005;28;20086;-77
2022/11/11 01:13:12;;;;;;;18.92;11.52;;;10.50;99.90;;;;;;5076443;28;20040;-77
2022/11/11 01:15:43;;;;;;;19.73;11.82;;;10.50;99.90;;;;;;5082816;28;20048;-77
2022/11/11 01:18:10;;;;;;;18.90;10.65;;;10.50;99.90;;;;;;5067569;28;20044;-77
2022/11/11 01:20:37;;;;;;;16.55;10.65;;;10.50;99.90;;;;;;5065736;28;20053;-77
2022/11/11 01:23:06;;;;;;;21.67;11.77;;;10.50;99.90;;;;;;5073648;28;20488;-77
2022/11/11 01:25:36;;;;;;;17.73;10.75;;;10.50;99.90;;;;;;5080095;28;20363;-77
2022/11/11 01:28:03;;;;;;;16.65;11.82;;;10.40;99.90;;;;;;5081239;28;20078;-77
2022/11/11 01:30:31;;;;;;;17.08;11.13;;;10.40;99.90;;;;;;5067787;28;20056;-76
2022/11/11 01:32:57;;;;;;;17.05;11.57;;;10.40;99.90;;;;;;5072229;28;20048;-77
2022/11/11 01:35:23;;;;;;;19.42;12.32;;;10.30;99.90;;;;;;5068744;28;20562;-77
2022/11/11 01:37:48;;;;;;;21.40;11.93;;;10.30;99.90;;;;;;5066424;28;20051;-77
2022/11/11 01:40:14;;;;;;;16.90;12.27;;;10.40;99.90;;;;;;5066131;28;20044;-77
2022/11/11 01:43:13;;;;;;;16.33;11.52;;;10.30;99.90;;;;;;5077206;28;20040;-77
2022/11/11 01:45:58;;;;;;;18.30;11.45;;;10.30;99.90;;;;;;5075439;28;20048;-77
2022/11/11 01:51:45;;;;;;;18.75;12.45;;;10.30;99.90;;;;;;5078901;28;20076;-77
2022/11/11 01:54:28;;;;;;;18.90;12.55;;;10.20;99.90;;;;;;5081571;28;20051;-77
2022/11/11 01:57:28;;;;;;;19.75;12.68;;;10.20;99.90;;;;;;5078587;28;20120;-77
2022/11/11 01:59:59;;;;;;;21.08;12.57;;;10.20;99.90;;;;;;5059778;28;20087;-77
2022/11/11 02:02:49;;;;;;;20.23;13.43;;;10.20;99.90;;;;;;5065157;28;20127;-77
2022/11/11 02:08:09;;;;;;;18.52;13.55;;;10.20;99.90;;;;;;5058506;28;20040;-78
2022/11/11 02:10:36;;;;;;;19.75;13.60;;;10.10;99.90;;;;;;5080385;28;20585;-77
2022/11/11 02:15:46;;;;;;;25.08;14.25;;;10.10;99.90;;;;;;5070847;28;19920;-77
2022/11/11 02:18:12;;;;;;;24.92;14.65;;;10.10;99.90;;;;;;5078934;28;20382;-77
2022/11/11 02:20:41;;;;;;;20.75;14.05;;;10.10;99.90;;;;;;5071573;28;20468;-77
2022/11/11 02:23:40;;;;;;;22.02;14.80;;;10.10;99.90;;;;;;5069943;28;20047;-77
2022/11/11 02:26:09;;;;;;;21.38;15.38;;;10.10;99.90;;;;;;5051357;28;20389;-77
2022/11/11 02:28:36;;;;;;;21.45;16.13;;;10.10;99.90;;;;;;5080337;28;20132;-77
2022/11/11 02:31:02;;;;;;;23.77;15.80;;;10.10;99.90;;;;;;5078297;28;20139;-77
2022/11/11 02:33:28;;;;;;;22.60;17.45;;;10.10;99.90;;;;;;5068612;28;20132;-77
2022/11/11 02:35:57;;;;;;;21.52;16.92;;;10.10;99.90;;;;;;5067979;28;20044;-77
2022/11/11 02:38:25;;;;;;;23.83;17.52;;;10.20;99.90;;;;;;5091019;28;20499;-77
2022/11/11 02:43:35;;;;;;;23.83;18.30;;;10.20;99.90;;;;;;5091099;28;20380;-77
2022/11/11 02:46:02;;;;;;;26.40;18.58;;;10.10;99.90;;;;;;5090526;28;20142;-77
2022/11/11 02:48:28;;;;;;;26.85;19.02;;;10.20;99.90;;;;;;5084357;28;20048;-77
2022/11/11 02:50:54;;;;;;;25.15;19.17;;;10.10;99.90;;;;;;5086309;28;20048;-76
2022/11/11 02:53:21;;;;;;;28.98;19.40;;;10.20;99.90;;;;;;5085388;28;20040;-77
2022/11/11 02:55:46;;;;;;;26.77;18.52;;;10.20;99.90;;;;;;5088270;28;20123;-77
2022/11/11 02:58:13;;;;;;;25.88;19.55;;;10.20;99.90;;;;;;5086179;28;20167;-77
2022/11/11 03:00:40;;;;;;;27.75;19.80;;;10.20;99.90;;;;;;5084194;28;20041;-77
2022/11/11 03:03:05;;;;;;;25.10;20.00;;;10.20;99.90;;;;;;5090189;28;20040;-77
2022/11/11 03:05:31;;;;;;;28.63;20.33;;;10.20;99.90;;;;;;5083964;28;20055;-77
2022/11/11 03:07:57;;;;;;;29.13;20.02;;;10.30;99.90;;;;;;5058661;28;20529;-77
2022/11/11 03:10:22;;;;;;;28.35;21.05;;;10.30;99.90;;;;;;5048905;28;20070;-77
2022/11/11 03:12:48;;;;;;;26.55;20.63;;;10.30;99.90;;;;;;5075751;28;20052;-77
2022/11/11 03:15:13;;;;;;;28.63;20.30;;;10.30;99.90;;;;;;5079507;28;20046;-77
2022/11/11 03:17:39;;;;;;;26.25;20.80;;;10.40;99.90;;;;;;5052375;28;20041;-76
2022/11/11 03:23:14;;;;;;;28.25;21.00;;;10.40;99.90;;;;;;5053515;28;20052;-77
2022/11/11 03:25:43;;;;;;;26.95;20.80;;;10.40;99.90;;;;;;5089163;28;20048;-77
2022/11/11 03:28:16;;;;;;;27.38;21.77;;;10.40;99.90;;;;;;5078901;28;20135;-77
2022/11/11 03:30:46;;;;;;;29.23;22.63;;;10.40;99.90;;;;;;5076661;28;20076;-77
2022/11/11 03:33:14;;;;;;;29.85;22.13;;;10.40;99.90;;;;;;5077008;28;20128;-77
2022/11/11 03:35:40;;;;;;;27.85;23.30;;;10.40;99.90;;;;;;5086236;28;20075;-77
2022/11/11 03:38:14;;;;;;;32.17;23.52;;;10.50;99.90;;;;;;5074166;28;20141;-77
2022/11/11 03:40:42;;;;;;;29.30;23.23;;;10.40;99.90;;;;;;5088306;28;20048;-78
2022/11/11 03:43:07;;;;;;;;;;;10.50;99.90;;;;;;5089416;28;20052;-78
2022/11/11 03:45:33;;;;;;;32.00;23.67;;;10.40;99.90;;;;;;5069980;28;20033;-77
2022/11/11 03:47:59;;;;;;;30.40;23.17;;;10.40;99.90;;;;;;5067810;28;20044;-77
2022/11/11 03:50:24;;;;;;;31.52;23.65;;;10.40;99.90;;;;;;5083121;28;20135;-78
2022/11/11 03:52:50;;;;;;;31.95;24.98;;;10.50;99.90;;;;;;5075810;28;20040;-78
2022/11/11 03:55:15;;;;;;;30.98;23.45;;;10.50;99.90;;;;;;5067976;28;20040;-78
2022/11/11 03:57:44;;;;;;;32.22;24.40;;;10.50;99.90;;;;;;5075554;28;20175;-78
2022/11/11 04:00:11;;;;;;;28.15;24.17;;;10.50;99.90;;;;;;5083308;28;20032;-78
2022/11/11 04:10:52;;;;;;;33.63;25.40;;;10.60;99.90;;;;;;5085249;28;20127;-76
2022/11/11 04:16:05;;;;;;;31.55;25.20;;;10.60;99.90;;;;;;5058456;28;20047;-77
2022/11/11 04:23:59;;;;;;;31.52;24.40;;;10.60;99.90;;;;;;5048150;28;20706;-78
2022/11/11 04:26:25;;;;;;;33.65;24.60;;;10.60;99.90;;;;;;5081454;28;20090;-78
2022/11/11 04:31:35;;;;;;;30.90;24.80;;;10.60;99.90;;;;;;5057178;28;20121;-77
2022/11/11 04:34:00;;;;;;;26.90;23.02;;;10.50;99.90;;;;;;5083026;28;20470;-77
2022/11/11 04:36:26;;;;;;;29.58;25.23;;;10.60;99.90;;;;;;5079833;28;20048;-78
2022/11/11 04:41:36;;;;;;;29.83;24.40;;;10.60;99.90;;;;;;5086120;28;20377;-77
2022/11/11 04:46:46;;;;;;;31.88;24.23;;;10.60;99.90;;;;;;5087882;28;20560;-78
2022/11/11 04:49:11;;;;;;;31.00;24.48;;;10.60;99.90;;;;;;5079567;28;20117;-76
2022/11/11 04:54:21;;;;;;;30.92;24.45;;;10.60;99.90;;;;;;5065318;28;20049;-77
2022/11/11 04:56:47;;;;;;;30.73;24.25;;;10.60;99.90;;;;;;5067687;28;20071;-77
2022/11/11 04:59:15;;;;;;;33.42;25.40;;;10.60;99.90;;;;;;5067367;28;20033;-77
2022/11/11 05:04:26;;;;;;;30.75;24.15;;;10.60;99.90;;;;;;5084263;28;20086;-77
2022/11/11 05:09:36;;;;;;;28.20;23.85;;;10.70;99.90;;;;;;5078240;28;20087;-77
2022/11/11 05:12:01;;;;;;;29.80;23.67;;;10.60;99.90;;;;;;5077534;28;20714;-77
2022/11/11 05:22:41;;;;;;;29.35;24.77;;;10.60;99.90;;;;;;5081373;28;20048;-78
2022/11/11 05:25:28;;;;;;;34.35;24.30;;;10.60;99.90;;;;;;5077088;28;20044;-78
2022/11/11 05:27:57;;;;;;;32.28;24.15;;;10.60;99.90;;;;;;5065934;28;20043;-78
2022/11/11 05:30:23;;;;;;;27.90;23.65;;;10.60;99.90;;;;;;5065257;28;20080;-77
2022/11/11 05:32:49;;;;;;;29.42;23.60;;;10.60;99.90;;;;;;5066778;28;20071;-77
2022/11/11 05:35:16;;;;;;;34.55;26.40;;;10.60;99.90;;;;;;5047912;28;20108;-77
2022/11/11 05:37:42;;;;;;;30.80;22.95;;;10.60;99.90;;;;;;5050971;28;20048;-77
2022/11/11 05:40:09;;;;;;;30.58;24.52;;;10.50;99.90;;;;;;5066351;28;20507;-77
2022/11/11 05:42:39;;;;;;;30.38;24.20;;;10.60;99.90;;;;;;5068005;28;20044;-77
2022/11/11 05:45:05;;;;;;;30.05;23.45;;;10.60;99.90;;;;;;5066890;28;20064;-77
2022/11/11 05:47:30;;;;;;;30.25;24.15;;;10.70;99.90;;;;;;5065562;28;20660;-78
2022/11/11 05:49:56;;;;;;;32.72;25.17;;;10.70;99.90;;;;;;5085261;28;20044;-77
2022/11/11 05:52:22;;;;;;;28.75;23.77;;;10.70;99.90;;;;;;5084092;28;20098;-78
2022/11/11 05:54:47;;;;;;;28.90;23.75;;;10.60;99.90;;;;;;5085645;28;20132;-77
2022/11/11 05:57:13;;;;;;;30.88;24.08;;;10.70;99.90;;;;;;5072187;28;20055;-77
2022/11/11 05:59:38;;;;;;;27.85;22.63;;;10.60;99.90;;;;;;5068454;28;20041;-77
2022/11/11 06:02:04;;;;;;;30.42;24.73;;;10.70;99.90;;;;;;5075485;28;20487;-78
2022/11/11 06:04:30;;;;;;;29.17;21.80;;;10.70;99.90;;;;;;5087580;28;20048;-78
2022/11/11 06:06:56;;;;;;;29.77;23.00;;;10.70;99.90;;;;;;5079267;28;20052;-77
2022/11/11 06:09:21;;;;;;;28.15;23.00;;;10.70;99.90;;;;;;5081370;28;20036;-78
2022/11/11 06:11:47;;;;;;;28.58;21.42;;;10.70;99.90;;;;;;5080528;28;20043;-78
2022/11/11 06:14:12;;;;;;;28.30;23.90;;;10.70;99.90;;;;;;5085503;28;20141;-78
2022/11/11 06:16:38;;;;;;;29.60;23.10;;;10.70;99.90;;;;;;5076969;28;20032;-78
2022/11/11 06:19:04;;;;;;;30.60;22.40;;;10.70;99.90;;;;;;5078575;28;20588;-77
2022/11/11 06:21:55;;;;;;;27.73;23.95;;;10.70;99.90;;;;;;5079015;28;20531;-78
2022/11/11 06:24:16;;;;;;;28.07;22.47;;;10.70;99.90;;;;;;5074281;28;20044;-78
2022/11/11 06:26:41;;;;;;;26.92;21.73;;;10.70;99.90;;;;;;5064593;28;20291;-77
2022/11/11 06:29:07;;;;;;;26.77;23.98;;;10.70;99.90;;;;;;5074095;28;20140;-78
2022/11/11 06:31:32;;;;;;;27.45;23.00;;;10.70;99.90;;;;;;5077290;28;20093;-76
2022/11/11 06:33:58;;;;;;;28.90;23.15;;;10.70;99.90;;;;;;5064825;28;20052;-77
2022/11/11 06:36:24;;;;;;;29.27;23.42;;;10.70;99.90;;;;;;5083003;28;20083;-76
2022/11/11 06:38:49;;;;;;;27.20;23.42;;;10.70;99.90;;;;;;5054158;28;20045;-76
2022/11/11 06:41:15;;;;;;;29.80;22.27;;;10.70;99.90;;;;;;5075654;28;20074;-79
2022/11/11 06:43:44;;;;;;;28.48;23.33;;;10.70;99.90;;;;;;5081012;28;20048;-76
2022/11/11 06:46:22;;;;;;;29.15;22.95;;;10.70;99.90;;;;;;5052263;28;20118;-77
2022/11/11 06:48:48;;;;;;;30.35;23.70;;;10.70;99.90;;;;;;5055234;28;20123;-76
2022/11/11 06:51:14;;;;;;;27.05;22.80;;;10.70;99.90;;;;;;5071526;28;20037;-77
2022/11/11 06:53:41;;;;;;;30.27;22.83;;;10.70;99.90;;;;;;5061031;28;20052;-77
2022/11/11 06:56:07;;;;;;;26.23;22.95;;;10.70;99.90;;;;;;5054240;28;20044;-75
2022/11/11 06:58:34;;;;;;;27.15;22.17;;;10.60;99.90;;;;;;5071425;28;20526;-78
2022/11/11 07:01:07;;;;;;;25.45;22.50;;;10.70;99.90;;;;;;5077065;28;20053;-76
2022/11/11 07:03:33;;;;;;;32.72;22.90;;;10.70;99.90;;;;;;5056990;28;20037;-76
2022/11/11 07:06:04;;;;;;;26.33;22.48;;;10.70;99.90;;;;;;5077517;28;20063;-76
2022/11/11 07:08:30;;;;;;;27.40;22.50;;;10.60;99.90;;;;;;5065417;28;20503;-76
2022/11/11 07:10:56;;;;;;;28.07;22.53;;;10.70;99.90;;;;;;5067669;28;20106;-76
2022/11/11 07:13:23;;;;;;;29.38;23.67;;;10.70;99.90;;;;;;5076124;28;20039;-75
2022/11/11 07:15:51;;;;;;;27.55;23.10;;;10.70;99.90;;;;;;5071639;28;20056;-77
2022/11/11 07:18:17;;;;;;;28.85;23.30;;;10.70;99.90;;;;;;5078327;28;20441;-76
2022/11/11 07:20:43;;;;;;;27.17;23.13;;;10.70;99.90;;;;;;5055496;28;20033;-76
2022/11/11 07:23:08;;;;;;;28.33;21.70;;;10.70;99.90;;;;;;5068142;28;20119;-76
2022/11/11 07:25:34;;;;;;;31.75;23.33;;;10.70;99.90;;;;;;5068763;28;20141;-77
2022/11/11 07:28:00;;;;;;;28.90;22.80;;;10.70;99.90;;;;;;5070086;28;20112;-76
2022/11/11 07:30:26;;;;;;;29.25;22.63;;;10.70;99.90;;;;;;5080431;28;20065;-76
2022/11/11 07:32:53;;;;;;;29.42;23.10;;;10.70;99.90;;;;;;5079895;28;20580;-76
2022/11/11 07:35:20;;;;;;;25.55;21.52;;;10.60;99.90;;;;;;5080949;28;20048;-76
2022/11/11 07:37:46;;;;;;;29.20;21.33;;;10.70;99.90;;;;;;5073631;28;20047;-76
2022/11/11 07:40:14;;;;;;;25.98;23.20;;;10.70;99.90;;;;;;5075655;28;20032;-76
2022/11/11 07:42:41;;;;;;;27.38;22.88;;;10.70;99.90;;;;;;5068055;28;20032;-77
2022/11/11 07:45:09;;;;;;;28.02;22.70;;;10.70;99.90;;;;;;5074347;28;20045;-76
2022/11/11 07:47:35;;;;;;;28.50;22.23;;;10.70;99.90;;;;;;5068031;28;20060;-76
2022/11/11 07:50:05;;;;;;;27.00;22.83;;;10.70;99.90;;;;;;5068296;28;20111;-77
2022/11/11 07:52:31;;;;;;;28.63;22.17;;;10.70;99.90;;;;;;5072625;28;20036;-76
2022/11/11 07:54:56;;;;;;;29.70;23.33;;;10.70;99.90;;;;;;5061245;28;20090;-76
2022/11/11 07:57:22;;;;;;;27.98;23.08;;;10.70;99.90;;;;;;5068793;28;20480;-76
2022/11/11 07:59:48;;;;;;;26.90;21.55;;;10.70;99.90;;;;;;5066304;28;20044;-76
2022/11/11 08:02:14;;;;;;;29.30;23.23;;;10.70;99.90;;;;;;5082388;28;20145;-78
2022/11/11 08:04:40;;;;;;;28.25;22.40;;;10.70;99.90;;;;;;5075096;28;20036;-76
2022/11/11 08:07:06;;;;;;;26.80;22.60;;;10.70;99.90;;;;;;5068714;28;20475;-75
2022/11/11 08:09:32;;;;;;;28.65;23.67;;;10.70;99.90;;;;;;5079764;28;20050;-79
2022/11/11 08:14:41;;;;;;;28.98;22.27;;;10.70;99.90;;;;;;5087714;28;20715;-81
2022/11/11 08:17:07;;;;;;;28.73;23.00;;;10.80;99.90;;;;;;5080065;28;20066;-84
2022/11/11 08:19:33;;;;;;;28.98;23.08;;;10.70;99.90;;;;;;5067165;28;20053;-85
2022/11/11 08:21:58;;;;;;;28.73;24.05;;;10.70;99.90;;;;;;5065276;28;20044;-85
2022/11/11 08:24:24;;;;;;;32.13;24.85;;;10.80;99.90;;;;;;5058485;28;20040;-83
2022/11/11 08:26:50;;;;;;;25.67;22.98;;;10.70;99.90;;;;;;5080739;28;20039;-90
2022/11/11 08:29:16;;;;;;;28.33;23.20;;;10.70;99.90;;;;;;5083787;28;20044;-85
2022/11/11 08:31:42;;;;;;;27.15;23.63;;;10.70;99.90;;;;;;5057396;28;20091;-89
2022/11/11 08:34:07;;;;;;;26.23;22.40;;;10.70;99.90;;;;;;5051912;28;20052;-88
2022/11/11 08:36:33;;;;;;;29.67;21.48;;;10.80;99.90;;;;;;5073253;28;20044;-88
2022/11/11 08:38:59;;;;;;;27.70;23.38;;;10.80;99.90;;;;;;5078012;28;21013;-83
2022/11/11 08:41:24;;;;;;;29.92;22.92;;;10.80;99.90;;;;;;5077329;28;20052;-87
2022/11/11 08:43:52;;;;;;;32.33;24.02;;;10.80;99.90;;;;;;5069480;28;20131;-85
2022/11/11 08:46:18;;;;;;;;;;;10.80;99.90;;;;;;5074925;28;20075;-86
2022/11/11 08:48:43;;;;;;;32.78;25.60;;;10.80;99.90;;;;;;5063927;28;19952;-86
2022/11/11 08:51:09;;;;;;;33.10;26.17;;;10.80;99.90;;;;;;5068906;28;20043;-81
2022/11/11 08:53:35;;;;;;;38.05;28.10;;;10.80;99.90;;;;;;5061988;28;20043;-83
2022/11/11 08:56:03;;;;;;;39.88;30.75;;;10.80;99.90;;;;;;5046291;28;21657;-85
2022/11/11 08:58:30;;;;;;;37.00;29.73;;;10.80;99.90;;;;;;5069316;28;20514;-85
2022/11/11 09:00:55;;;;;;;39.10;31.83;;;10.80;99.90;;;;;;5063856;28;20056;-85
2022/11/11 09:03:21;;;;;;;39.13;30.50;;;10.90;99.90;;;;;;5068412;28;20506;-80
2022/11/11 09:05:47;;;;;;;43.90;33.97;;;10.80;99.90;;;;;;5074799;28;20040;-88
2022/11/11 09:08:13;;;;;;;40.72;31.23;;;10.90;99.90;;;;;;5058081;28;20740;-82
2022/11/11 09:10:38;;;;;;;36.42;32.08;;;10.90;99.90;;;;;;5061643;28;20124;-81
2022/11/11 09:13:04;;;;;;;39.00;31.25;;;10.90;99.90;;;;;;5088199;28;20083;-86
2022/11/11 09:15:31;;;;;;;43.42;32.13;;;10.90;99.90;;;;;;5061017;28;20045;-87
2022/11/11 09:17:57;;;;;;;38.47;30.40;;;10.80;99.90;;;;;;5059453;28;20044;-87
2022/11/11 09:20:23;;;;;;;36.28;30.45;;;10.90;99.90;;;;;;5059576;28;20132;-88
2022/11/11 09:22:49;;;;;;;37.08;29.55;;;10.90;99.90;;;;;;5060486;28;20058;-88
2022/11/11 09:25:16;;;;;;;35.45;28.55;;;10.90;99.90;;;;;;5060868;28;20117;-81
2022/11/11 09:27:42;;;;;;;34.67;26.92;;;11.00;99.90;;;;;;5060961;28;20041;-86
2022/11/11 09:30:09;;;;;;;37.20;28.15;;;11.00;99.90;;;;;;5056496;28;20393;-87
2022/11/11 09:32:35;;;;;;;36.97;26.88;;;11.00;99.90;;;;;;5060919;28;20056;-85
2022/11/11 09:35:01;;;;;;;31.85;26.30;;;10.90;99.90;;;;;;5053215;28;20045;-86
2022/11/11 09:37:27;;;;;;;31.73;25.55;;;11.00;99.90;;;;;;5065811;28;20045;-87
2022/11/11 09:39:55;;;;;;;29.63;24.27;;;11.00;99.90;;;;;;5070394;28;20672;-86
2022/11/11 09:42:32;;;;;;;;;;;11.00;99.90;;;;;;5073399;28;20100;-85
2022/11/11 09:45:04;;;;;;;30.77;22.88;;;11.00;99.90;;;;;;5080627;28;19924;-84
2022/11/11 09:47:46;;;;;;;27.02;23.80;;;11.00;99.90;;;;;;5082641;28;20044;-80
2022/11/11 09:50:24;;;;;;;24.88;22.20;;;11.00;99.90;;;;;;5047412;28;20439;-78
2022/11/11 09:52:56;;;;;;;27.13;23.05;;;11.00;99.90;;;;;;5072675;28;20048;-80
2022/11/11 09:55:47;;;;;;;24.33;21.58;;;11.00;99.90;;;;;;5071219;28;20075;-80
2022/11/11 09:58:25;;;;;;;24.70;22.13;;;11.00;99.90;;;;;;5082067;28;20040;-81
2022/11/11 10:01:01;;;;;;;24.02;21.05;;;11.00;99.90;;;;;;5076818;28;20032;-88
2022/11/11 10:03:30;;;;;;;24.45;20.45;;;11.00;99.90;;;;;;5077693;28;20098;-85
2022/11/11 10:05:59;;;;;;;24.10;20.20;;;11.00;99.90;;;;;;5046134;28;20067;-84
2022/11/11 10:08:34;;;;;;;24.70;20.10;;;11.00;99.90;;;;;;5061587;28;20048;-79
2022/11/11 10:11:01;;;;;;;24.50;19.58;;;11.10;99.90;;;;;;5078080;28;20055;-79
2022/11/11 10:13:32;;;;;;;20.45;18.27;;;11.10;99.90;;;;;;5082672;28;20101;-76
2022/11/11 10:16:16;;;;;;;21.50;18.52;;;11.20;99.90;;;;;;5079421;28;20113;-75
2022/11/11 10:19:15;;;;;;;22.45;18.98;;;11.20;99.90;;;;;;5082032;28;20129;-76
2022/11/11 10:21:52;;;;;;;21.33;17.48;;;11.30;99.90;;;;;;5085708;28;20130;-77
2022/11/11 10:24:29;;;;;;;20.00;17.90;;;11.40;99.90;;;;;;5075349;28;20041;-76
2022/11/11 10:26:54;;;;;;;22.10;18.50;;;11.40;99.90;;;;;;5079284;28;20040;-76
2022/11/11 10:29:24;;;;;;;19.52;17.52;;;11.40;99.90;;;;;;5086247;28;20108;-76
2022/11/11 10:32:22;;;;;;;19.92;17.52;;;11.50;99.90;;;;;;5084369;28;20088;-81
2022/11/11 10:34:48;;;;;;;19.70;17.58;;;11.50;99.90;;;;;;5076323;28;20495;-87
2022/11/11 10:37:46;;;;;;;19.83;16.35;;;11.60;99.90;;;;;;5083243;28;20119;-88
2022/11/11 10:40:24;;;;;;;19.40;15.70;;;11.60;99.90;;;;;;5059221;28;20080;-82
2022/11/11 10:42:50;;;;;;;20.70;16.10;;;11.70;99.90;;;;;;5090688;28;20047;-88
2022/11/11 10:45:30;;;;;;;19.63;15.05;;;11.70;99.90;;;;;;5082463;28;20070;-83
2022/11/11 10:48:04;;;;;;;18.00;14.55;;;11.80;99.90;;;;;;5069227;28;20049;-85
2022/11/11 10:50:46;;;;;;;17.48;14.32;;;11.80;99.90;;;;;;5087636;28;20532;-86
2022/11/11 10:53:45;;;;;;;15.52;13.93;;;11.90;99.90;;;;;;5081885;28;20391;-81
2022/11/11 10:56:43;;;;;;;17.08;13.60;;;11.90;99.90;;;;;;5062894;28;20551;-88
2022/11/11 10:59:25;;;;;;;15.15;13.18;;;11.90;99.90;;;;;;5068794;28;20492;-81
2022/11/11 11:01:59;;;;;;;14.15;12.65;;;12.00;99.90;;;;;;5063197;28;20048;-77
2022/11/11 11:04:40;;;;;;;15.43;12.85;;;12.00;99.90;;;;;;5068249;28;20048;-82
2022/11/11 11:07:12;;;;;;;14.35;12.85;;;12.00;99.90;;;;;;5068495;28;21034;-81
2022/11/11 11:09:56;;;;;;;14.63;12.10;;;12.10;99.90;;;;;;5081802;28;20086;-82
2022/11/11 11:12:37;;;;;;;14.07;12.52;;;12.10;99.90;;;;;;5070547;28;20038;-81
2022/11/11 11:15:12;;;;;;;14.50;12.25;;;12.20;99.90;;;;;;5074360;28;20049;-81
2022/11/11 11:18:09;;;;;;;14.23;12.05;;;12.30;99.90;;;;;;5068254;28;20040;-79
2022/11/11 11:20:35;;;;;;;12.40;11.10;;;12.40;99.90;;;;;;5069216;28;20087;-82
2022/11/11 11:23:01;;;;;;;14.70;11.82;;;12.40;99.90;;;;;;5080042;28;20064;-80
2022/11/11 11:25:32;;;;;;;15.95;11.82;;;12.40;99.90;;;;;;5075411;28;20051;-82
2022/11/11 11:28:24;;;;;;;14.57;12.05;;;12.50;99.90;;;;;;5063816;28;20049;-83
2022/11/11 11:31:06;;;;;;;14.95;11.07;;;12.50;99.90;;;;;;5064048;28;20040;-78
2022/11/11 11:33:54;;;;;;;13.65;11.35;;;12.50;99.90;;;;;;5071962;28;20042;-85
2022/11/11 11:36:20;;;;;;;12.65;11.32;;;12.50;99.90;;;;;;5067496;28;20519;-81
2022/11/11 11:38:49;;;;;;;12.25;10.52;;;12.60;99.90;;;;;;5066675;28;20120;-88
2022/11/11 11:41:17;;;;;;;12.55;10.85;;;12.60;99.90;;;;;;5070539;28;21727;-84
2022/11/11 11:43:44;;;;;;;14.57;10.82;;;12.60;99.90;;;;;;5061963;28;20045;-82
2022/11/11 11:46:24;;;;;;;12.80;10.27;;;12.60;99.90;;;;;;5072084;28;20381;-78
2022/11/11 11:49:23;;;;;;;12.40;10.60;;;12.70;99.90;;;;;;5055931;28;20089;-78
2022/11/11 11:51:59;;;;;;;12.75;10.75;;;12.70;99.90;;;;;;5074153;28;20472;-78
2022/11/11 11:54:31;;;;;;;14.30;10.13;;;12.70;99.90;;;;;;5068317;28;20458;-78
2022/11/11 11:57:02;;;;;;;13.30;9.70;;;12.80;99.90;;;;;;5070594;28;20044;-76
2022/11/11 11:59:57;;;;;;;11.85;10.18;;;12.70;99.90;;;;;;5099106;27;20052;-76
2022/11/11 12:02:48;;;;;;;13.00;10.30;;;12.70;99.90;;;;;;5057653;28;20048;-77
2022/11/11 12:05:36;;;;;;;14.00;10.50;;;12.80;99.90;;;;;;5049938;28;20123;-76
2022/11/11 12:08:17;;;;;;;12.98;9.57;;;12.80;99.90;;;;;;5068348;28;20105;-76
2022/11/11 12:10:50;;;;;;;12.98;10.40;;;12.80;99.90;;;;;;5051972;28;20550;-76
2022/11/11 12:13:33;;;;;;;12.68;9.55;;;12.80;99.90;;;;;;5063094;28;20041;-73
2022/11/11 12:16:21;;;;;;;13.50;9.50;;;12.80;99.90;;;;;;5062094;28;20041;-75
2022/11/11 12:18:59;;;;;;;11.50;9.07;;;12.80;99.90;;;;;;5070183;28;20098;-81
2022/11/11 12:21:38;;;;;;;13.55;9.57;;;12.80;99.90;;;;;;5067720;28;20044;-76
2022/11/11 12:24:21;;;;;;;13.35;8.77;;;12.80;99.90;;;;;;5074824;28;20109;-79
2022/11/11 12:27:00;;;;;;;11.73;9.38;;;12.80;99.90;;;;;;5080834;28;20049;-79
2022/11/11 12:29:47;;;;;;;11.77;9.45;;;12.80;99.90;;;;;;5052970;28;20056;-78
2022/11/11 12:32:31;;;;;;;13.15;9.40;;;12.80;99.90;;;;;;5066418;28;20101;-79
2022/11/11 12:35:15;;;;;;;14.70;8.70;;;12.90;99.90;;;;;;5056189;28;20202;-79
2022/11/11 12:38:31;;;;;;;13.02;9.40;;;12.90;99.90;;;;;;5068007;28;20397;-79
2022/11/11 12:41:23;;;;;;;11.00;8.25;;;12.90;99.90;;;;;;5035176;28;20656;-81
2022/11/11 12:44:07;;;;;;;12.95;8.60;;;13.00;99.90;;;;;;5058154;28;20545;-83
2022/11/11 12:47:02;;;;;;;12.38;8.32;;;13.10;99.90;;;;;;5051566;28;20053;-82
2022/11/11 12:49:40;;;;;;;11.48;8.10;;;13.00;99.90;;;;;;5056073;28;20057;-83
2022/11/11 12:52:30;;;;;;;11.95;7.90;;;13.10;99.90;;;;;;5070129;28;20844;-80
2022/11/11 12:55:23;;;;;;;11.82;7.55;;;13.00;99.90;;;;;;5068127;28;20048;-82
2022/11/11 12:58:10;;;;;;;10.98;8.23;;;13.10;99.90;;;;;;5067391;28;20048;-82
2022/11/11 13:00:53;;;;;;;10.65;8.15;;;13.10;99.90;;;;;;5064487;28;20464;-82
2022/11/11 13:03:33;;;;;;;12.27;8.05;;;13.10;99.90;;;;;;5066244;28;20125;-82
2022/11/11 13:06:11;;;;;;;11.35;7.97;;;13.20;99.90;;;;;;5098701;28;20496;-82
2022/11/11 13:09:07;;;;;;;10.90;7.70;;;13.20;99.90;;;;;;5050532;28;20050;-82
2022/11/11 13:11:38;;;;;;;10.43;7.10;;;13.30;99.90;;;;;;5072330;28;20519;-82
2022/11/11 13:14:17;;;;;;;9.73;7.38;;;13.20;99.90;;;;;;5071469;28;20104;-81
2022/11/11 13:16:42;;;;;;;11.30;6.97;;;13.30;99.90;;;;;;5064913;28;20045;-82
2022/11/11 13:19:23;;;;;;;11.88;7.22;;;13.30;99.90;;;;;;5066465;28;20043;-82
2022/11/11 13:22:21;;;;;;;10.57;7.40;;;13.30;99.90;;;;;;5063848;28;20441;-82
2022/11/11 13:24:49;;;;;;;11.05;7.45;;;13.30;99.90;;;;;;5066358;28;20570;-82
2022/11/11 13:27:25;;;;;;;12.75;7.43;;;13.20;99.90;;;;;;5064904;28;20090;-82
2022/11/11 13:30:03;;;;;;;11.95;7.60;;;13.20;99.90;;;;;;5063773;28;20703;-82
2022/11/11 13:32:44;;;;;;;9.98;6.95;;;13.30;99.90;;;;;;5049495;28;20052;-81
2022/11/11 13:35:40;;;;;;;11.80;7.45;;;13.30;99.90;;;;;;5067140;28;20051;-87
2022/11/11 13:38:10;;;;;;;9.73;7.25;;;13.20;99.90;;;;;;5076564;28;20047;-86
2022/11/11 13:40:38;;;;;;;8.88;6.80;;;13.20;99.90;;;;;;5067829;28;20084;-83
2022/11/11 13:43:13;;;;;;;11.38;6.95;;;13.30;99.90;;;;;;5075767;28;20058;-89
2022/11/11 13:45:41;;;;;;;10.05;7.43;;;13.30;99.90;;;;;;5073412;28;20144;-87
2022/11/11 13:48:20;;;;;;;9.70;6.97;;;13.30;99.90;;;;;;5071108;28;20115;-88
2022/11/11 13:50:46;;;;;;;10.38;7.05;;;13.30;99.90;;;;;;5060038;28;20029;-81
2022/11/11 13:53:24;;;;;;;12.27;6.63;;;13.30;99.90;;;;;;5063741;28;20106;-79
2022/11/11 13:55:53;;;;;;;12.27;6.75;;;13.30;99.90;;;;;;5066941;28;20123;-81
2022/11/11 13:58:40;;;;;;;11.65;7.30;;;13.30;99.90;;;;;;5064812;28;20039;-81
2022/11/11 14:01:08;;;;;;;9.10;6.65;;;13.30;99.90;;;;;;5066300;28;20083;-80
2022/11/11 14:03:55;;;;;;;11.95;7.20;;;13.20;99.90;;;;;;5064289;28;20048;-81
2022/11/11 14:06:26;;;;;;;11.32;7.05;;;13.20;99.90;;;;;;5068100;28;20041;-81
2022/11/11 14:08:53;;;;;;;11.35;8.20;;;13.20;99.90;;;;;;5070206;28;20095;-81